sensor_id;sensor_type;location;lat;lon;timestamp;pressure;altitude;pressure_sealevel;temperature;humidity
58973;BME280;44750;52.040;7.472;2022-07-17T00:03:44;101449.50;;;15.93;100.00
58973;BME280;44750;52.040;7.472;2022-07-17T00:08:45;101456.50;;;15.87;100.00
58973;BME280;44750;52.040;7.472;2022-07-17T00:13:45;101399.28;;;15.69;100.00
58973;BME280;44750;52.040;7.472;2022-07-17T00:18:45;101466.69;;;15.77;100.00
58973;BME280;44750;52.040;7.472;2022-07-17T00:23:46;101452.00;;;15.78;100.00
58973;BME280;44750;52.040;7.472;2022-07-17T00:28:46;101465.31;;;15.73;100.00
58973;BME280;44750;52.040;7.472;2022-07-17T00:33:46;101452.16;;;15.68;100.00
58973;BME280;44750;52.040;7.472;2022-07-17T00:38:46;101469.41;;;15.69;100.00
58973;BME280;44750;52.040;7.472;2022-07-17T00:43:47;101472.97;;;15.69;100.00
58973;BME280;44750;52.040;7.472;2022-07-17T00:48:47;101480.81;;;15.72;100.00
58973;BME280;44750;52.040;7.472;2022-07-17T00:53:49;101426.38;;;15.46;100.00
58973;BME280;44750;52.040;7.472;2022-07-17T00:58:50;101445.44;;;15.38;100.00
58973;BME280;44750;52.040;7.472;2022-07-17T01:03:51;101424.97;;;15.26;100.00
58973;BME280;44750;52.040;7.472;2022-07-17T01:08:51;101477.16;;;15.31;100.00
58973;BME280;44750;52.040;7.472;2022-07-17T01:13:51;101462.13;;;15.27;100.00
58973;BME280;44750;52.040;7.472;2022-07-17T01:18:52;101485.88;;;15.34;100.00
58973;BME280;44750;52.040;7.472;2022-07-17T01:23:53;101475.44;;;15.30;100.00
58973;BME280;44750;52.040;7.472;2022-07-17T01:28:53;101485.69;;;15.28;100.00
58973;BME280;44750;52.040;7.472;2022-07-17T01:33:53;101499.50;;;15.34;100.00
58973;BME280;44750;52.040;7.472;2022-07-17T01:38:54;101482.41;;;15.24;100.00
58973;BME280;44750;52.040;7.472;2022-07-17T01:43:54;101508.16;;;15.30;100.00
58973;BME280;44750;52.040;7.472;2022-07-17T01:48:54;101527.16;;;15.40;100.00
58973;BME280;44750;52.040;7.472;2022-07-17T01:53:54;101501.22;;;15.35;100.00
58973;BME280;44750;52.040;7.472;2022-07-17T01:58:55;101493.34;;;15.32;100.00
58973;BME280;44750;52.040;7.472;2022-07-17T02:03:55;101479.84;;;15.23;100.00
58973;BME280;44750;52.040;7.472;2022-07-17T02:08:55;101464.28;;;15.07;100.00
58973;BME280;44750;52.040;7.472;2022-07-17T02:13:55;101452.66;;;14.96;100.00
58973;BME280;44750;52.040;7.472;2022-07-17T02:18:56;101469.81;;;14.88;100.00
58973;BME280;44750;52.040;7.472;2022-07-17T02:23:56;101469.31;;;14.85;100.00
58973;BME280;44750;52.040;7.472;2022-07-17T02:28:56;101525.91;;;14.99;100.00
58973;BME280;44750;52.040;7.472;2022-07-17T02:33:56;101519.81;;;15.05;100.00
58973;BME280;44750;52.040;7.472;2022-07-17T02:38:57;101515.19;;;14.98;100.00
58973;BME280;44750;52.040;7.472;2022-07-17T02:43:57;101526.25;;;14.96;100.00
58973;BME280;44750;52.040;7.472;2022-07-17T02:48:57;101530.16;;;14.94;100.00
58973;BME280;44750;52.040;7.472;2022-07-17T02:53:58;101527.94;;;14.89;100.00
58973;BME280;44750;52.040;7.472;2022-07-17T02:58:58;101567.81;;;14.90;100.00
58973;BME280;44750;52.040;7.472;2022-07-17T03:03:58;101528.53;;;14.75;100.00
58973;BME280;44750;52.040;7.472;2022-07-17T03:08:58;101545.50;;;14.68;100.00
58973;BME280;44750;52.040;7.472;2022-07-17T03:13:59;101567.13;;;14.70;100.00
58973;BME280;44750;52.040;7.472;2022-07-17T03:18:59;101553.03;;;14.57;100.00
58973;BME280;44750;52.040;7.472;2022-07-17T03:23:59;101594.31;;;14.62;100.00
58973;BME280;44750;52.040;7.472;2022-07-17T03:28:59;101577.56;;;14.57;100.00
58973;BME280;44750;52.040;7.472;2022-07-17T03:33:59;101576.88;;;14.54;100.00
58973;BME280;44750;52.040;7.472;2022-07-17T03:39:00;101552.59;;;14.43;100.00
58973;BME280;44750;52.040;7.472;2022-07-17T03:44:00;101546.03;;;14.28;99.65
58973;BME280;44750;52.040;7.472;2022-07-17T03:49:01;101559.25;;;14.23;97.38
58973;BME280;44750;52.040;7.472;2022-07-17T03:54:01;101572.47;;;14.17;95.56
58973;BME280;44750;52.040;7.472;2022-07-17T03:59:02;101576.97;;;14.09;92.55
58973;BME280;44750;52.040;7.472;2022-07-17T04:04:02;101574.41;;;14.07;89.99
58973;BME280;44750;52.040;7.472;2022-07-17T04:09:04;101583.22;;;14.01;88.79
58973;BME280;44750;52.040;7.472;2022-07-17T04:14:04;101648.34;;;14.30;85.71
58973;BME280;44750;52.040;7.472;2022-07-17T04:19:04;101672.16;;;14.46;85.73
58973;BME280;44750;52.040;7.472;2022-07-17T04:24:04;101697.00;;;14.61;86.67
58973;BME280;44750;52.040;7.472;2022-07-17T04:29:05;101754.97;;;14.81;87.30
58973;BME280;44750;52.040;7.472;2022-07-17T04:34:05;101859.50;;;15.44;85.91
58973;BME280;44750;52.040;7.472;2022-07-17T04:39:05;101888.38;;;15.91;90.26
58973;BME280;44750;52.040;7.472;2022-07-17T04:44:05;101853.38;;;16.13;96.85
58973;BME280;44750;52.040;7.472;2022-07-17T04:49:06;101818.63;;;16.31;100.00
58973;BME280;44750;52.040;7.472;2022-07-17T04:54:06;101755.94;;;16.30;100.00
58973;BME280;44750;52.040;7.472;2022-07-17T04:59:06;101838.78;;;16.73;100.00
58973;BME280;44750;52.040;7.472;2022-07-17T05:04:06;101879.06;;;17.14;100.00
58973;BME280;44750;52.040;7.472;2022-07-17T05:09:07;101802.63;;;17.20;100.00
58973;BME280;44750;52.040;7.472;2022-07-17T05:14:07;101830.00;;;17.53;100.00
58973;BME280;44750;52.040;7.472;2022-07-17T05:19:07;101671.97;;;17.31;100.00
58973;BME280;44750;52.040;7.472;2022-07-17T05:24:08;101612.53;;;17.08;100.00
58973;BME280;44750;52.040;7.472;2022-07-17T05:29:08;101542.16;;;16.69;100.00
58973;BME280;44750;52.040;7.472;2022-07-17T05:34:08;101681.94;;;16.99;100.00
58973;BME280;44750;52.040;7.472;2022-07-17T05:39:08;101726.19;;;17.27;100.00
58973;BME280;44750;52.040;7.472;2022-07-17T05:44:09;101743.47;;;17.44;100.00
58973;BME280;44750;52.040;7.472;2022-07-17T05:49:09;101692.16;;;17.38;100.00
58973;BME280;44750;52.040;7.472;2022-07-17T05:54:09;101801.75;;;17.78;100.00
58973;BME280;44750;52.040;7.472;2022-07-17T05:59:09;101690.22;;;17.55;100.00
58973;BME280;44750;52.040;7.472;2022-07-17T06:04:10;101813.88;;;18.00;100.00
58973;BME280;44750;52.040;7.472;2022-07-17T06:09:10;101784.34;;;18.27;100.00
58973;BME280;44750;52.040;7.472;2022-07-17T06:14:10;101650.56;;;17.91;100.00
58973;BME280;44750;52.040;7.472;2022-07-17T06:19:10;101685.63;;;18.03;100.00
58973;BME280;44750;52.040;7.472;2022-07-17T06:24:10;101628.00;;;17.80;100.00
58973;BME280;44750;52.040;7.472;2022-07-17T06:29:11;101605.13;;;17.73;100.00
58973;BME280;44750;52.040;7.472;2022-07-17T06:34:11;101672.00;;;17.79;100.00
58973;BME280;44750;52.040;7.472;2022-07-17T06:39:11;101903.59;;;18.70;100.00
58973;BME280;44750;52.040;7.472;2022-07-17T06:44:12;101629.78;;;18.36;100.00
58973;BME280;44750;52.040;7.472;2022-07-17T06:49:12;101718.06;;;18.54;100.00
58973;BME280;44750;52.040;7.472;2022-07-17T06:54:12;101903.00;;;19.46;100.00
58973;BME280;44750;52.040;7.472;2022-07-17T06:59:12;101900.38;;;20.14;100.00
58973;BME280;44750;52.040;7.472;2022-07-17T07:04:13;101877.13;;;20.62;100.00
58973;BME280;44750;52.040;7.472;2022-07-17T07:09:13;101836.25;;;21.10;100.00
58973;BME280;44750;52.040;7.472;2022-07-17T07:14:13;101798.03;;;21.22;100.00
58973;BME280;44750;52.040;7.472;2022-07-17T07:19:14;101737.56;;;21.35;100.00
58973;BME280;44750;52.040;7.472;2022-07-17T07:24:14;101740.38;;;21.70;100.00
58973;BME280;44750;52.040;7.472;2022-07-17T07:29:14;101796.72;;;21.96;100.00
58973;BME280;44750;52.040;7.472;2022-07-17T07:34:14;101718.94;;;22.01;100.00
58973;BME280;44750;52.040;7.472;2022-07-17T07:39:14;101831.03;;;22.64;100.00
58973;BME280;44750;52.040;7.472;2022-07-17T07:44:15;101687.34;;;22.72;100.00
58973;BME280;44750;52.040;7.472;2022-07-17T07:49:15;101640.19;;;22.67;100.00
58973;BME280;44750;52.040;7.472;2022-07-17T07:54:15;101629.56;;;22.37;100.00
58973;BME280;44750;52.040;7.472;2022-07-17T07:59:15;101774.22;;;23.03;100.00
58973;BME280;44750;52.040;7.472;2022-07-17T08:04:16;101736.66;;;23.62;100.00
58973;BME280;44750;52.040;7.472;2022-07-17T08:09:16;101554.63;;;22.87;100.00
58973;BME280;44750;52.040;7.472;2022-07-17T08:14:16;101712.00;;;23.47;100.00
58973;BME280;44750;52.040;7.472;2022-07-17T08:19:17;101719.59;;;23.79;100.00
58973;BME280;44750;52.040;7.472;2022-07-17T08:24:17;101625.09;;;24.02;100.00
58973;BME280;44750;52.040;7.472;2022-07-17T08:29:18;101522.66;;;23.45;100.00
58973;BME280;44750;52.040;7.472;2022-07-17T08:34:18;101464.28;;;23.28;100.00
58973;BME280;44750;52.040;7.472;2022-07-17T08:39:18;101753.31;;;24.21;100.00
58973;BME280;44750;52.040;7.472;2022-07-17T08:44:18;101867.84;;;25.17;100.00
58973;BME280;44750;52.040;7.472;2022-07-17T08:49:20;101807.03;;;25.54;100.00
58973;BME280;44750;52.040;7.472;2022-07-17T08:54:21;101526.38;;;25.03;95.55
58973;BME280;44750;52.040;7.472;2022-07-17T08:59:22;101694.16;;;25.62;94.32
58973;BME280;44750;52.040;7.472;2022-07-17T09:04:22;101683.13;;;25.92;90.79
58973;BME280;44750;52.040;7.472;2022-07-17T09:09:22;101454.69;;;25.44;86.32
58973;BME280;44750;52.040;7.472;2022-07-17T09:14:22;101552.91;;;25.67;87.53
58973;BME280;44750;52.040;7.472;2022-07-17T09:19:31;101401.84;;;25.58;85.67
58973;BME280;44750;52.040;7.472;2022-07-17T09:30:00;101667.13;;;26.43;82.88
58973;BME280;44750;52.040;7.472;2022-07-17T09:35:02;101595.84;;;26.67;79.16
58973;BME280;44750;52.040;7.472;2022-07-17T09:40:13;101444.94;;;26.50;75.86
58973;BME280;44750;52.040;7.472;2022-07-17T09:45:14;101303.28;;;26.33;73.72
58973;BME280;44750;52.040;7.472;2022-07-17T09:50:16;101293.75;;;25.93;76.39
58973;BME280;44750;52.040;7.472;2022-07-17T09:55:16;101193.34;;;25.79;75.22
58973;BME280;44750;52.040;7.472;2022-07-17T10:00:17;101279.28;;;25.56;77.73
58973;BME280;44750;52.040;7.472;2022-07-17T10:05:17;101212.72;;;25.32;77.93
58973;BME280;44750;52.040;7.472;2022-07-17T10:10:17;101227.81;;;25.36;77.48
58973;BME280;44750;52.040;7.472;2022-07-17T10:15:23;101352.94;;;25.63;77.54
58973;BME280;44750;52.040;7.472;2022-07-17T10:20:25;101402.94;;;26.34;74.21
58973;BME280;44750;52.040;7.472;2022-07-17T10:25:28;101332.44;;;26.47;71.95
58973;BME280;44750;52.040;7.472;2022-07-17T10:30:29;101323.25;;;26.47;71.76
58973;BME280;44750;52.040;7.472;2022-07-17T10:35:47;101287.97;;;26.18;73.37
58973;BME280;44750;52.040;7.472;2022-07-17T10:40:59;101196.31;;;25.90;73.19
58973;BME280;44750;52.040;7.472;2022-07-17T10:45:59;101146.91;;;25.86;72.48
58973;BME280;44750;52.040;7.472;2022-07-17T10:50:59;101266.50;;;25.78;74.46
58973;BME280;44750;52.040;7.472;2022-07-17T10:56:02;101313.03;;;26.35;70.69
58973;BME280;44750;52.040;7.472;2022-07-17T11:01:29;101195.41;;;26.36;69.02
58973;BME280;44750;52.040;7.472;2022-07-17T11:06:34;101076.78;;;25.74;69.63
58973;BME280;44750;52.040;7.472;2022-07-17T11:11:49;101280.78;;;26.46;68.58
58973;BME280;44750;52.040;7.472;2022-07-17T11:16:56;101350.69;;;26.96;66.20
58973;BME280;44750;52.040;7.472;2022-07-17T11:21:59;101307.94;;;27.60;63.07
58973;BME280;44750;52.040;7.472;2022-07-17T11:27:01;101300.06;;;27.91;61.13
58973;BME280;44750;52.040;7.472;2022-07-17T11:32:01;101139.97;;;27.39;59.42
58973;BME280;44750;52.040;7.472;2022-07-17T11:37:03;101045.47;;;27.22;57.76
58973;BME280;44750;52.040;7.472;2022-07-17T11:42:07;101273.75;;;27.98;57.65
58973;BME280;44750;52.040;7.472;2022-07-17T11:47:08;101197.81;;;28.20;54.05
58973;BME280;44750;52.040;7.472;2022-07-17T11:52:13;101254.97;;;28.50;53.88
58973;BME280;44750;52.040;7.472;2022-07-17T11:57:15;101299.81;;;28.98;52.55
58973;BME280;44750;52.040;7.472;2022-07-17T12:02:21;101133.66;;;28.59;53.11
58973;BME280;44750;52.040;7.472;2022-07-17T12:07:23;101006.84;;;27.92;54.08
58973;BME280;44750;52.040;7.472;2022-07-17T12:12:25;100985.34;;;27.82;53.74
58973;BME280;44750;52.040;7.472;2022-07-17T12:17:38;100988.28;;;27.03;56.32
58973;BME280;44750;52.040;7.472;2022-07-17T12:22:44;100866.63;;;26.83;54.59
58973;BME280;44750;52.040;7.472;2022-07-17T12:27:44;101064.31;;;27.59;53.47
58973;BME280;44750;52.040;7.472;2022-07-17T12:32:45;101105.19;;;27.80;52.42
58973;BME280;44750;52.040;7.472;2022-07-17T12:37:46;100974.25;;;27.87;48.45
58973;BME280;44750;52.040;7.472;2022-07-17T12:42:46;100879.63;;;27.49;49.56
58973;BME280;44750;52.040;7.472;2022-07-17T12:47:46;100920.84;;;27.58;50.33
58973;BME280;44750;52.040;7.472;2022-07-17T12:52:46;101149.09;;;28.45;49.90
58973;BME280;44750;52.040;7.472;2022-07-17T12:57:47;101205.78;;;29.15;47.84
58973;BME280;44750;52.040;7.472;2022-07-17T13:02:47;101002.56;;;28.66;47.32
58973;BME280;44750;52.040;7.472;2022-07-17T13:07:47;100907.84;;;28.28;47.58
58973;BME280;44750;52.040;7.472;2022-07-17T13:12:47;100882.16;;;28.16;47.34
58973;BME280;44750;52.040;7.472;2022-07-17T13:17:48;100874.31;;;28.08;46.89
58973;BME280;44750;52.040;7.472;2022-07-17T13:22:48;100858.28;;;27.88;47.55
58973;BME280;44750;52.040;7.472;2022-07-17T13:27:48;101045.44;;;28.65;45.01
58973;BME280;44750;52.040;7.472;2022-07-17T13:32:48;101065.28;;;29.11;44.47
58973;BME280;44750;52.040;7.472;2022-07-17T13:37:48;100860.28;;;28.73;41.41
58973;BME280;44750;52.040;7.472;2022-07-17T13:42:49;100651.34;;;27.89;41.65
58973;BME280;44750;52.040;7.472;2022-07-17T13:47:49;100759.44;;;28.17;41.47
58973;BME280;44750;52.040;7.472;2022-07-17T13:52:50;100607.06;;;27.77;40.88
58973;BME280;44750;52.040;7.472;2022-07-17T13:57:50;100853.03;;;28.29;41.56
58973;BME280;44750;52.040;7.472;2022-07-17T14:02:50;100959.78;;;28.88;40.33
58973;BME280;44750;52.040;7.472;2022-07-17T14:07:51;100733.09;;;28.35;39.34
58973;BME280;44750;52.040;7.472;2022-07-17T14:12:51;100869.56;;;28.94;38.76
58973;BME280;44750;52.040;7.472;2022-07-17T14:17:51;100885.75;;;29.12;37.88
58973;BME280;44750;52.040;7.472;2022-07-17T14:22:52;100616.72;;;28.38;37.63
58973;BME280;44750;52.040;7.472;2022-07-17T14:27:52;100733.19;;;28.61;37.34
58973;BME280;44750;52.040;7.472;2022-07-17T14:32:52;100750.84;;;28.88;36.71
58973;BME280;44750;52.040;7.472;2022-07-17T14:38:01;100873.53;;;29.24;36.53
58973;BME280;44750;52.040;7.472;2022-07-17T14:43:01;100731.94;;;29.31;34.31
58973;BME280;44750;52.040;7.472;2022-07-17T14:48:01;100597.56;;;28.46;35.40
58973;BME280;44750;52.040;7.472;2022-07-17T14:53:01;100590.84;;;28.32;36.78
58973;BME280;44750;52.040;7.472;2022-07-17T14:58:02;100661.03;;;28.49;36.59
58973;BME280;44750;52.040;7.472;2022-07-17T15:03:02;100614.81;;;28.43;36.58
58973;BME280;44750;52.040;7.472;2022-07-17T15:08:02;100782.03;;;28.84;36.72
58973;BME280;44750;52.040;7.472;2022-07-17T15:13:02;100653.28;;;28.67;36.16
58973;BME280;44750;52.040;7.472;2022-07-17T15:18:03;100444.91;;;27.81;35.94
58973;BME280;44750;52.040;7.472;2022-07-17T15:23:03;100512.16;;;27.63;36.54
58973;BME280;44750;52.040;7.472;2022-07-17T15:28:03;100682.34;;;28.13;36.45
58973;BME280;44750;52.040;7.472;2022-07-17T15:33:04;100696.69;;;28.47;35.02
58973;BME280;44750;52.040;7.472;2022-07-17T15:38:04;100761.66;;;28.79;35.08
58973;BME280;44750;52.040;7.472;2022-07-17T15:43:04;100632.09;;;28.50;35.15
58973;BME280;44750;52.040;7.472;2022-07-17T15:48:05;100738.03;;;28.97;34.97
58973;BME280;44750;52.040;7.472;2022-07-17T15:53:05;100608.16;;;28.60;36.04
58973;BME280;44750;52.040;7.472;2022-07-17T15:58:05;100557.97;;;28.18;36.92
58973;BME280;44750;52.040;7.472;2022-07-17T16:03:06;100629.22;;;28.19;37.78
58973;BME280;44750;52.040;7.472;2022-07-17T16:08:06;100706.66;;;28.38;37.91
58973;BME280;44750;52.040;7.472;2022-07-17T16:13:06;100707.44;;;28.28;38.92
58973;BME280;44750;52.040;7.472;2022-07-17T16:18:06;100670.66;;;28.11;39.62
58973;BME280;44750;52.040;7.472;2022-07-17T16:23:07;100626.25;;;27.78;40.59
58973;BME280;44750;52.040;7.472;2022-07-17T16:28:07;100756.88;;;28.06;41.07
58973;BME280;44750;52.040;7.472;2022-07-17T16:33:07;100706.44;;;27.97;39.85
58973;BME280;44750;52.040;7.472;2022-07-17T16:38:07;100651.53;;;27.72;40.44
58973;BME280;44750;52.040;7.472;2022-07-17T16:43:09;100672.16;;;27.81;40.09
58973;BME280;44750;52.040;7.472;2022-07-17T16:48:09;100617.53;;;27.64;40.35
58973;BME280;44750;52.040;7.472;2022-07-17T16:53:11;100614.69;;;27.49;40.48
58973;BME280;44750;52.040;7.472;2022-07-17T16:58:12;100577.84;;;27.26;40.89
58973;BME280;44750;52.040;7.472;2022-07-17T17:03:12;100749.75;;;27.82;40.49
58973;BME280;44750;52.040;7.472;2022-07-17T17:08:12;100654.06;;;27.78;40.02
58973;BME280;44750;52.040;7.472;2022-07-17T17:13:13;100511.44;;;27.30;40.27
58973;BME280;44750;52.040;7.472;2022-07-17T17:18:13;100569.81;;;27.35;40.31
58973;BME280;44750;52.040;7.472;2022-07-17T17:23:13;100481.66;;;27.20;40.10
58973;BME280;44750;52.040;7.472;2022-07-17T17:28:13;100610.47;;;27.41;40.63
58973;BME280;44750;52.040;7.472;2022-07-17T17:33:14;100684.59;;;27.68;40.35
58973;BME280;44750;52.040;7.472;2022-07-17T17:38:14;100765.00;;;28.17;40.01
58973;BME280;44750;52.040;7.472;2022-07-17T17:43:14;100680.09;;;28.05;39.33
58973;BME280;44750;52.040;7.472;2022-07-17T17:48:15;100517.19;;;27.66;39.32
58973;BME280;44750;52.040;7.472;2022-07-17T17:53:15;100591.22;;;27.82;39.19
58973;BME280;44750;52.040;7.472;2022-07-17T17:58:18;100543.97;;;27.88;38.26
58973;BME280;44750;52.040;7.472;2022-07-17T18:03:18;100379.72;;;27.36;38.93
58973;BME280;44750;52.040;7.472;2022-07-17T18:08:19;100333.44;;;26.83;41.24
58973;BME280;44750;52.040;7.472;2022-07-17T18:13:19;100508.44;;;26.94;42.22
58973;BME280;44750;52.040;7.472;2022-07-17T18:18:19;100420.91;;;26.43;43.87
58973;BME280;44750;52.040;7.472;2022-07-17T18:23:20;100585.31;;;26.56;44.80
58973;BME280;44750;52.040;7.472;2022-07-17T18:28:20;100658.97;;;26.63;44.50
58973;BME280;44750;52.040;7.472;2022-07-17T18:33:20;100738.63;;;26.85;45.16
58973;BME280;44750;52.040;7.472;2022-07-17T18:38:20;100732.38;;;26.73;45.66
58973;BME280;44750;52.040;7.472;2022-07-17T18:43:21;100735.78;;;26.58;47.37
58973;BME280;44750;52.040;7.472;2022-07-17T18:48:22;100711.31;;;26.32;48.84
58973;BME280;44750;52.040;7.472;2022-07-17T18:53:22;100665.03;;;25.94;50.52
58973;BME280;44750;52.040;7.472;2022-07-17T18:58:22;100851.78;;;26.16;51.93
58973;BME280;44750;52.040;7.472;2022-07-17T19:03:23;100907.94;;;26.24;53.16
58973;BME280;44750;52.040;7.472;2022-07-17T19:08:23;100898.28;;;26.09;54.21
58973;BME280;44750;52.040;7.472;2022-07-17T19:13:23;100872.78;;;25.78;56.02
58973;BME280;44750;52.040;7.472;2022-07-17T19:18:24;100897.34;;;25.58;57.44
58973;BME280;44750;52.040;7.472;2022-07-17T19:23:24;100967.66;;;25.51;59.37
58973;BME280;44750;52.040;7.472;2022-07-17T19:28:24;100981.03;;;25.43;60.72
58973;BME280;44750;52.040;7.472;2022-07-17T19:33:25;101013.94;;;25.39;61.94
58973;BME280;44750;52.040;7.472;2022-07-17T19:38:25;101037.91;;;25.33;62.72
58973;BME280;44750;52.040;7.472;2022-07-17T19:43:25;101010.16;;;25.04;63.99
58973;BME280;44750;52.040;7.472;2022-07-17T19:48:26;101046.28;;;24.98;65.44
58973;BME280;44750;52.040;7.472;2022-07-17T19:53:26;101089.34;;;24.94;66.68
58973;BME280;44750;52.040;7.472;2022-07-17T19:58:26;101069.63;;;24.78;67.38
58973;BME280;44750;52.040;7.472;2022-07-17T20:03:26;101121.13;;;24.79;68.43
58973;BME280;44750;52.040;7.472;2022-07-17T20:08:28;101129.44;;;24.79;68.88
58973;BME280;44750;52.040;7.472;2022-07-17T20:13:29;101086.78;;;24.57;70.25
58973;BME280;44750;52.040;7.472;2022-07-17T20:18:29;101056.81;;;24.23;72.20
58973;BME280;44750;52.040;7.472;2022-07-17T20:23:30;101126.22;;;24.21;73.40
58973;BME280;44750;52.040;7.472;2022-07-17T20:28:31;101133.91;;;24.19;74.42
58973;BME280;44750;52.040;7.472;2022-07-17T20:33:31;101130.63;;;24.11;75.37
58973;BME280;44750;52.040;7.472;2022-07-17T20:38:31;101133.31;;;23.99;76.27
58973;BME280;44750;52.040;7.472;2022-07-17T20:43:32;101140.41;;;23.95;76.67
58973;BME280;44750;52.040;7.472;2022-07-17T20:48:32;101148.25;;;23.98;76.45
58973;BME280;44750;52.040;7.472;2022-07-17T20:53:32;101136.19;;;23.92;76.11
58973;BME280;44750;52.040;7.472;2022-07-17T20:58:32;101102.47;;;23.83;75.58
58973;BME280;44750;52.040;7.472;2022-07-17T21:03:33;101098.31;;;23.74;75.48
58973;BME280;44750;52.040;7.472;2022-07-17T21:08:33;101081.44;;;23.64;75.82
58973;BME280;44750;52.040;7.472;2022-07-17T21:13:34;101048.69;;;23.49;76.03
58973;BME280;44750;52.040;7.472;2022-07-17T21:18:34;101052.88;;;23.14;77.32
58973;BME280;44750;52.040;7.472;2022-07-17T21:23:35;101089.31;;;23.23;77.40
58973;BME280;44750;52.040;7.472;2022-07-17T21:28:35;101067.13;;;23.11;77.66
58973;BME280;44750;52.040;7.472;2022-07-17T21:33:36;101097.69;;;23.10;78.11
58973;BME280;44750;52.040;7.472;2022-07-17T21:38:36;101133.78;;;23.15;79.09
58973;BME280;44750;52.040;7.472;2022-07-17T21:43:37;101141.84;;;23.16;79.61
58973;BME280;44750;52.040;7.472;2022-07-17T21:48:37;101100.09;;;23.06;79.92
58973;BME280;44750;52.040;7.472;2022-07-17T21:53:38;101099.13;;;22.94;80.79
58973;BME280;44750;52.040;7.472;2022-07-17T21:58:39;101068.00;;;22.86;80.60
58973;BME280;44750;52.040;7.472;2022-07-17T22:03:39;101091.13;;;22.85;80.93
58973;BME280;44750;52.040;7.472;2022-07-17T22:08:40;101066.66;;;22.70;81.40
58973;BME280;44750;52.040;7.472;2022-07-17T22:13:40;101075.97;;;22.69;81.75
58973;BME280;44750;52.040;7.472;2022-07-17T22:18:41;101064.59;;;22.59;81.82
58973;BME280;44750;52.040;7.472;2022-07-17T22:23:41;101108.72;;;22.66;81.97
58973;BME280;44750;52.040;7.472;2022-07-17T22:28:42;101104.88;;;22.67;81.61
58973;BME280;44750;52.040;7.472;2022-07-17T22:33:42;101091.75;;;22.62;81.52
58973;BME280;44750;52.040;7.472;2022-07-17T22:38:43;101047.94;;;22.47;81.63
58973;BME280;44750;52.040;7.472;2022-07-17T22:43:43;101046.91;;;22.42;81.63
58973;BME280;44750;52.040;7.472;2022-07-17T22:48:43;101064.16;;;22.37;81.85
58973;BME280;44750;52.040;7.472;2022-07-17T22:53:44;101006.59;;;22.15;82.54
58973;BME280;44750;52.040;7.472;2022-07-17T22:58:44;100992.06;;;21.95;84.52
58973;BME280;44750;52.040;7.472;2022-07-17T23:03:47;100972.53;;;21.64;86.35
58973;BME280;44750;52.040;7.472;2022-07-17T23:08:47;101088.81;;;21.80;87.85
58973;BME280;44750;52.040;7.472;2022-07-17T23:13:48;101108.75;;;21.75;88.89
58973;BME280;44750;52.040;7.472;2022-07-17T23:18:48;101105.41;;;21.66;89.73
58973;BME280;44750;52.040;7.472;2022-07-17T23:23:48;101091.88;;;21.51;91.36
58973;BME280;44750;52.040;7.472;2022-07-17T23:28:49;101113.50;;;21.41;93.14
58973;BME280;44750;52.040;7.472;2022-07-17T23:33:49;101094.28;;;21.21;95.33
58973;BME280;44750;52.040;7.472;2022-07-17T23:38:49;101106.16;;;21.01;97.71
58973;BME280;44750;52.040;7.472;2022-07-17T23:43:49;101122.03;;;20.86;100.00
58973;BME280;44750;52.040;7.472;2022-07-17T23:48:50;101136.41;;;20.81;100.00
58973;BME280;44750;52.040;7.472;2022-07-17T23:53:50;101135.16;;;20.70;100.00
58973;BME280;44750;52.040;7.472;2022-07-17T23:58:50;101129.59;;;20.57;100.00
